Time;durP1;ratioP1;P1;durP2;ratioP2;P2;SDS_P1;SDS_P2;PMS_P1;PMS_P2;Temp;Humidity;BMP_temperature;BMP_pressure;BME280_temperature;BME280_humidity;BME280_pressure;Samples;Min_cycle;Max_cycle;Signal;HPM_P1;HPM_P2
2023/07/03 00:00:14;;;;;;;20.73;7.20;;;;;;;17.80;81.34;100834.75;5033206;28;20060;-74
2023/07/03 00:02:51;;;;;;;22.63;7.40;;;;;;;17.70;81.37;100834.72;5034320;28;21179;-71
2023/07/03 00:05:17;;;;;;;20.88;7.28;;;;;;;17.63;81.16;100830.06;5032394;28;20069;-74
2023/07/03 00:07:42;;;;;;;24.17;7.00;;;;;;;17.76;79.92;100834.19;5032766;28;20034;-74
2023/07/03 00:10:08;;;;;;;22.58;7.28;;;;;;;17.80;79.33;100832.91;5030909;28;20102;-71
2023/07/03 00:12:34;;;;;;;20.63;6.88;;;;;;;17.75;78.84;100828.94;5031601;28;20136;-72
2023/07/03 00:15:00;;;;;;;21.25;6.32;;;;;;;17.77;78.87;100835.91;5031485;28;20034;-72
2023/07/03 00:17:26;;;;;;;18.67;5.68;;;;;;;17.72;78.34;100832.75;5030048;28;20033;-74
2023/07/03 00:19:51;;;;;;;19.83;6.53;;;;;;;17.59;79.81;100824.09;5042007;28;20037;-73
2023/07/03 00:22:17;;;;;;;27.92;6.57;;;;;;;17.64;78.99;100832.63;5041414;28;20132;-73
2023/07/03 00:24:43;;;;;;;17.42;6.95;;;;;;;17.60;79.89;100825.81;5035347;28;20041;-73
2023/07/03 00:27:08;;;;;;;20.98;6.60;;;;;;;17.63;79.21;100817.44;5032344;28;20039;-73
2023/07/03 00:29:34;;;;;;;19.63;6.32;;;;;;;17.54;78.71;100821.84;5030866;28;20045;-73
2023/07/03 00:32:00;;;;;;;20.60;6.60;;;;;;;17.63;78.18;100825.53;5043184;28;20072;-73
2023/07/03 00:34:27;;;;;;;22.75;6.43;;;;;;;17.67;78.14;100818.84;5035238;28;20125;-73
2023/07/03 00:36:54;;;;;;;26.65;6.30;;;;;;;17.61;78.02;100822.94;5066360;28;20111;-73
2023/07/03 00:39:19;;;;;;;26.77;6.53;;;;;;;17.58;78.63;100819.72;5034401;28;20045;-74
2023/07/03 00:41:45;;;;;;;21.80;6.13;;;;;;;17.63;78.50;100820.13;5031182;28;20092;-74
2023/07/03 00:44:14;;;;;;;23.25;6.90;;;;;;;17.55;78.67;100811.91;5030001;28;20322;-74
2023/07/03 00:46:42;;;;;;;20.25;6.75;;;;;;;17.48;78.83;100819.72;5030854;28;20038;-73
2023/07/03 00:49:09;;;;;;;21.10;6.10;;;;;;;17.56;78.42;100816.28;5036563;28;20033;-73
2023/07/03 00:51:37;;;;;;;21.90;5.95;;;;;;;17.50;79.29;100827.66;5044733;28;20048;-73
2023/07/03 00:54:05;;;;;;;23.52;6.80;;;;;;;17.47;79.59;100826.09;5030324;28;20041;-73
2023/07/03 00:56:30;;;;;;;26.23;6.93;;;;;;;17.55;78.76;100818.13;5029405;28;20859;-74
2023/07/03 00:58:56;;;;;;;22.73;6.10;;;;;;;17.46;79.59;100826.22;5030318;28;20833;-72
2023/07/03 01:01:34;;;;;;;24.73;6.10;;;;;;;17.45;80.12;100822.69;5029626;28;20040;-72
2023/07/03 01:04:17;;;;;;;26.50;7.05;;;;;;;17.48;79.46;100822.41;5030147;28;20048;-71
2023/07/03 01:06:51;;;;;;;23.92;5.78;;;;;;;17.35;79.88;100825.38;5027894;28;20033;-72
2023/07/03 01:09:22;;;;;;;26.55;6.85;;;;;;;17.24;79.56;100813.88;5030351;28;20520;-72
2023/07/03 01:11:49;;;;;;;20.20;6.00;;;;;;;17.37;80.29;100811.78;5043436;28;20034;-72
2023/07/03 01:14:17;;;;;;;30.25;7.20;;;;;;;17.25;79.92;100813.75;5043676;28;20059;-72
2023/07/03 01:16:45;;;;;;;24.35;6.22;;;;;;;17.32;79.47;100808.66;5040122;28;20109;-71
2023/07/03 01:19:18;;;;;;;20.17;6.03;;;;;;;17.26;79.40;100811.88;5044399;28;20038;-71
2023/07/03 01:22:02;;;;;;;22.73;6.78;;;;;;;17.20;79.60;100815.16;5042072;28;20266;-73
2023/07/03 01:24:30;;;;;;;24.92;6.28;;;;;;;17.22;79.10;100815.84;5038381;28;20292;-71
2023/07/03 01:26:58;;;;;;;20.48;6.40;;;;;;;17.11;80.01;100813.28;5035104;28;20120;-71
2023/07/03 01:29:24;;;;;;;23.52;6.47;;;;;;;17.08;79.29;100811.75;5032214;28;20290;-71
2023/07/03 01:31:52;;;;;;;23.85;6.30;;;;;;;17.12;79.56;100817.69;5036519;28;20033;-72
2023/07/03 01:34:18;;;;;;;23.17;7.07;;;;;;;17.11;79.85;100807.91;5040817;28;20057;-72
2023/07/03 01:36:44;;;;;;;22.60;5.78;;;;;;;17.04;79.56;100807.63;5034474;28;20111;-71
2023/07/03 01:39:10;;;;;;;19.55;5.53;;;;;;;17.10;79.67;100801.66;5036044;28;20045;-72
2023/07/03 01:41:37;;;;;;;21.35;6.15;;;;;;;17.06;80.44;100811.88;5041474;28;20029;-72
2023/07/03 01:44:03;;;;;;;21.63;6.63;;;;;;;17.06;80.76;100808.31;5030323;28;20111;-71
2023/07/03 01:46:28;;;;;;;30.55;7.00;;;;;;;16.92;81.18;100806.03;5037105;28;20099;-73
2023/07/03 01:48:54;;;;;;;25.23;6.85;;;;;;;16.95;80.52;100811.16;5037372;28;20574;-73
2023/07/03 01:51:31;;;;;;;29.45;7.20;;;;;;;16.99;80.24;100802.66;5040244;28;20037;-71
2023/07/03 01:54:09;;;;;;;22.40;6.60;;;;;;;16.89;80.41;100798.25;5037506;28;20038;-72
2023/07/03 01:56:38;;;;;;;23.92;6.78;;;;;;;16.87;81.28;100802.91;5047488;28;20040;-73
2023/07/03 01:59:13;;;;;;;27.17;7.00;;;;;;;16.72;82.66;100805.16;5036698;28;20049;-73
2023/07/03 02:01:49;;;;;;;21.95;5.88;;;;;;;16.71;82.50;100812.38;5046144;28;20034;-73
2023/07/03 02:04:46;;;;;;;21.15;5.93;;;;;;;16.64;83.32;100808.50;5037802;28;20022;-73
2023/07/03 02:07:12;;;;;;;26.23;6.60;;;;;;;16.53;84.69;100806.75;5067638;28;20570;-72
2023/07/03 02:09:39;;;;;;;19.17;6.18;;;;;;;16.56;84.33;100809.16;5042996;28;20047;-73
2023/07/03 02:12:08;;;;;;;23.15;6.80;;;;;;;16.57;84.42;100802.81;5068606;28;20033;-73
2023/07/03 02:14:35;;;;;;;17.95;5.78;;;;;;;16.65;84.26;100809.34;5041874;28;20033;-71
2023/07/03 02:17:03;;;;;;;23.60;6.70;;;;;;;16.69;84.49;100811.63;5037075;28;20033;-73
2023/07/03 02:19:29;;;;;;;21.88;6.50;;;;;;;16.50;85.31;100798.09;5037179;28;20045;-75
2023/07/03 02:21:56;;;;;;;22.15;6.93;;;;;;;16.79;84.41;100792.84;5036955;28;20083;-74
2023/07/03 02:24:22;;;;;;;27.60;7.07;;;;;;;16.63;85.65;100800.56;5037337;28;20077;-72
2023/07/03 02:26:48;;;;;;;23.58;6.38;;;;;;;16.71;85.70;100798.03;5037188;28;20074;-72
2023/07/03 02:29:14;;;;;;;24.13;6.45;;;;;;;16.54;86.60;100786.94;5036575;28;20022;-73
2023/07/03 02:31:39;;;;;;;25.52;7.25;;;;;;;16.46;86.86;100797.50;5044067;28;20471;-73
2023/07/03 02:34:05;;;;;;;20.63;6.18;;;;;;;16.54;86.96;100796.84;5040843;28;20077;-73
2023/07/03 02:36:34;;;;;;;25.83;7.47;;;;;;;16.50;87.66;100792.72;5035458;28;20698;-73
2023/07/03 02:39:01;;;;;;;30.48;7.25;;;;;;;16.66;87.43;100800.28;5050632;28;20113;-74
2023/07/03 02:41:29;;;;;;;21.52;6.60;;;;;;;16.72;87.20;100797.94;5040373;28;20060;-72
2023/07/03 02:43:55;;;;;;;28.08;6.93;;;;;;;16.53;88.43;100784.38;5069252;28;20033;-71
2023/07/03 02:46:23;;;;;;;28.35;6.78;;;;;;;16.51;89.11;100786.34;5036064;28;20104;-72
2023/07/03 02:48:49;;;;;;;28.83;6.53;;;;;;;16.49;90.43;100783.78;5035955;28;20072;-73
2023/07/03 02:51:16;;;;;;;32.50;7.65;;;;;;;16.54;90.96;100780.69;5039892;28;20138;-74
2023/07/03 02:53:43;;;;;;;26.90;6.20;;;;;;;16.45;91.65;100774.28;5035654;28;20045;-74
2023/07/03 02:56:12;;;;;;;23.60;6.85;;;;;;;16.43;90.97;100778.97;5066998;28;20064;-71
2023/07/03 02:58:40;;;;;;;32.25;7.57;;;;;;;16.40;92.93;100773.00;5041737;28;20898;-73
2023/07/03 03:01:12;;;;;;;30.08;7.97;;;;;;;16.39;93.50;100772.16;5046487;28;20087;-74
2023/07/03 03:03:38;;;;;;;29.65;7.60;;;;;;;16.39;93.30;100776.69;5073383;28;20033;-73
2023/07/03 03:06:04;;;;;;;27.38;7.22;;;;;;;16.35;93.88;100770.72;5045499;28;20411;-73
2023/07/03 03:08:30;;;;;;;32.28;7.07;;;;;;;16.30;94.47;100773.81;5043619;28;20033;-73
2023/07/03 03:10:55;;;;;;;30.13;7.38;;;;;;;16.43;94.75;100772.72;5041966;28;20041;-73
2023/07/03 03:13:21;;;;;;;26.63;7.25;;;;;;;16.46;94.46;100778.66;5064782;28;20372;-72
2023/07/03 03:15:47;;;;;;;34.58;7.03;;;;;;;16.33;95.46;100772.69;5033603;28;21043;-73
2023/07/03 03:18:12;;;;;;;33.05;7.43;;;;;;;16.46;95.48;100775.13;5031145;28;20395;-73
2023/07/03 03:20:38;;;;;;;25.05;7.45;;;;;;;16.36;96.38;100771.56;5038209;28;20064;-73
2023/07/03 03:23:04;;;;;;;28.42;7.82;;;;;;;16.43;97.48;100776.28;5035487;28;20036;-72
2023/07/03 03:25:29;;;;;;;41.90;8.63;;;;;;;16.30;98.26;100778.34;5030043;28;20047;-71
2023/07/03 03:27:55;;;;;;;36.25;8.93;;;;;;;16.29;98.76;100771.25;5037614;28;20945;-72
2023/07/03 03:30:21;;;;;;;32.33;7.63;;;;;;;16.41;98.81;100774.69;5030964;28;20029;-72
2023/07/03 03:32:47;;;;;;;34.33;8.07;;;;;;;16.44;99.08;100777.97;5030761;28;20107;-72
2023/07/03 03:35:13;;;;;;;31.92;7.53;;;;;;;16.44;99.25;100783.34;5031110;28;20036;-74
2023/07/03 03:37:39;;;;;;;32.22;8.02;;;;;;;16.42;100.00;100785.34;5029798;28;20021;-72
2023/07/03 03:40:07;;;;;;;43.67;8.65;;;;;;;16.43;100.00;100783.50;5063528;28;20026;-72
2023/07/03 03:42:34;;;;;;;33.10;8.07;;;;;;;16.41;100.00;100788.16;5033477;28;20193;-71
2023/07/03 03:45:00;;;;;;;34.95;8.32;;;;;;;16.49;100.00;100788.34;5028778;28;20037;-72
2023/07/03 03:47:25;;;;;;;32.13;8.52;;;;;;;16.45;100.00;100793.13;5067034;28;20029;-74
2023/07/03 03:49:52;;;;;;;38.20;8.57;;;;;;;16.53;100.00;100795.16;5036744;28;20112;-75
2023/07/03 03:52:18;;;;;;;44.90;9.60;;;;;;;16.59;100.00;100789.22;5033836;28;20042;-74
2023/07/03 03:54:43;;;;;;;42.10;9.07;;;;;;;16.56;100.00;100784.09;5034525;28;20491;-71
2023/07/03 03:57:09;;;;;;;35.72;8.20;;;;;;;16.51;100.00;100784.50;5030588;28;20347;-72
2023/07/03 03:59:35;;;;;;;32.20;8.63;;;;;;;16.50;100.00;100787.34;5029604;28;20152;-74
2023/07/03 04:02:00;;;;;;;39.53;9.07;;;;;;;16.54;100.00;100781.53;5032121;28;20041;-73
2023/07/03 04:04:26;;;;;;;33.30;8.80;;;;;;;16.55;100.00;100787.78;5032517;28;20034;-73
2023/07/03 04:06:52;;;;;;;37.72;8.35;;;;;;;16.50;100.00;100779.25;5030402;28;20045;-74
2023/07/03 04:09:18;;;;;;;41.78;9.40;;;;;;;16.47;100.00;100791.16;5035573;28;20075;-72
2023/07/03 04:11:43;;;;;;;40.90;9.00;;;;;;;16.29;100.00;100777.50;5030132;28;20521;-71
2023/07/03 04:14:09;;;;;;;38.28;8.65;;;;;;;16.43;100.00;100788.88;5030672;28;20550;-73
2023/07/03 04:16:35;;;;;;;30.70;7.70;;;;;;;16.42;100.00;100793.41;5038048;28;20541;-73
2023/07/03 04:19:01;;;;;;;33.15;9.13;;;;;;;16.46;100.00;100788.59;5031125;28;20572;-73
2023/07/03 04:21:26;;;;;;;39.85;9.57;;;;;;;16.53;100.00;100797.84;5037136;28;20038;-72
2023/07/03 04:23:52;;;;;;;36.40;8.73;;;;;;;16.53;100.00;100789.75;5039464;28;21063;-73
2023/07/03 04:26:18;;;;;;;38.08;9.88;;;;;;;16.40;100.00;100791.84;5030270;28;20395;-73
2023/07/03 04:28:43;;;;;;;37.50;9.02;;;;;;;16.46;100.00;100789.44;5035834;28;20483;-73
2023/07/03 04:31:10;;;;;;;43.65;9.13;;;;;;;16.51;100.00;100787.19;5031394;28;20840;-73
2023/07/03 04:33:35;;;;;;;47.55;9.52;;;;;;;16.64;100.00;100796.88;5029220;28;20241;-73
2023/07/03 04:36:01;;;;;;;32.40;9.50;;;;;;;16.60;100.00;100796.28;5037298;28;20033;-74
2023/07/03 04:38:27;;;;;;;34.65;8.80;;;;;;;16.58;100.00;100793.75;5032221;28;20040;-72
2023/07/03 04:40:53;;;;;;;40.22;8.88;;;;;;;16.56;100.00;100801.09;5036860;28;20041;-73
2023/07/03 04:43:20;;;;;;;35.25;9.32;;;;;;;16.53;100.00;100797.84;5030203;28;20179;-73
2023/07/03 04:45:51;;;;;;;34.90;9.48;;;;;;;16.60;100.00;100801.69;5041114;28;20188;-73
2023/07/03 04:48:18;;;;;;;36.80;9.60;;;;;;;16.63;100.00;100805.94;5033380;28;20034;-72
2023/07/03 04:50:49;;;;;;;40.13;8.52;;;;;;;16.75;100.00;100803.03;5034475;28;20128;-74
2023/07/03 04:53:16;;;;;;;33.25;9.02;;;;;;;16.81;100.00;100807.84;5072361;28;20903;-74
2023/07/03 04:55:42;;;;;;;34.72;8.73;;;;;;;16.92;100.00;100811.41;5033678;28;20087;-74
2023/07/03 04:58:09;;;;;;;38.45;9.10;;;;;;;16.93;100.00;100805.06;5034506;28;20106;-72
2023/07/03 05:00:35;;;;;;;44.17;9.68;;;;;;;16.94;100.00;100823.78;5039397;28;20072;-75
2023/07/03 05:03:04;;;;;;;36.30;8.73;;;;;;;16.98;100.00;100805.50;5033686;28;20033;-72
2023/07/03 05:05:30;;;;;;;37.47;9.25;;;;;;;17.11;100.00;100806.06;5038299;28;20035;-74
2023/07/03 05:07:55;;;;;;;32.70;9.05;;;;;;;17.06;100.00;100811.88;5036876;28;20047;-73
2023/07/03 05:10:22;;;;;;;38.83;8.55;;;;;;;17.57;100.00;100807.19;5039304;28;20133;-73
2023/07/03 05:12:49;;;;;;;41.13;9.88;;;;;;;19.17;94.14;100815.13;5038135;28;20044;-73
2023/07/03 05:15:17;;;;;;;39.42;9.35;;;;;;;18.29;92.27;100820.16;5040119;28;20037;-73
2023/07/03 05:17:43;;;;;;;36.33;8.57;;;;;;;17.73;96.27;100823.69;5047021;28;20136;-73
2023/07/03 05:20:14;;;;;;;40.90;10.82;;;;;;;17.42;100.00;100827.50;5033688;28;20206;-73
2023/07/03 05:22:42;;;;;;;34.95;9.23;;;;;;;17.32;100.00;100830.22;5036456;28;20055;-73
2023/07/03 05:25:10;;;;;;;36.45;9.25;;;;;;;17.09;100.00;100833.16;5033861;28;20025;-73
2023/07/03 05:27:36;;;;;;;37.53;9.23;;;;;;;16.99;100.00;100831.44;5033130;28;20625;-74
2023/07/03 05:30:03;;;;;;;31.75;10.13;;;;;;;17.20;100.00;100824.09;5039349;28;20124;-74
2023/07/03 05:32:29;;;;;;;38.70;9.50;;;;;;;17.14;100.00;100827.34;5034844;28;20329;-73
2023/07/03 05:34:55;;;;;;;36.25;9.52;;;;;;;17.25;100.00;100827.22;5037440;28;20036;-73
2023/07/03 05:37:20;;;;;;;46.83;9.65;;;;;;;17.17;100.00;100828.91;5038519;28;20399;-71
2023/07/03 05:39:48;;;;;;;35.05;9.85;;;;;;;16.98;100.00;100849.44;5046012;28;20036;-71
2023/07/03 05:42:18;;;;;;;38.47;10.38;;;;;;;16.81;100.00;100848.25;5046612;28;20232;-72
2023/07/03 05:44:44;;;;;;;34.38;9.50;;;;;;;16.86;100.00;100847.84;5057803;28;20044;-72
2023/07/03 05:47:11;;;;;;;41.72;10.93;;;;;;;16.97;100.00;100849.59;5037786;28;20033;-71
2023/07/03 05:49:37;;;;;;;34.90;8.80;;;;;;;17.15;100.00;100844.38;5032744;28;20041;-72
2023/07/03 05:52:03;;;;;;;34.42;8.85;;;;;;;17.30;100.00;100838.41;5032488;28;20049;-72
2023/07/03 05:54:28;;;;;;;35.63;9.18;;;;;;;17.44;100.00;100839.84;5031587;28;20079;-71
2023/07/03 05:57:06;;;;;;;37.20;9.43;;;;;;;17.42;100.00;100840.97;5041592;28;20057;-71
2023/07/03 05:59:33;;;;;;;36.40;8.40;;;;;;;17.49;100.00;100850.22;5037354;28;20136;-71
2023/07/03 06:01:58;;;;;;;43.10;9.10;;;;;;;17.54;100.00;100845.25;5032532;28;20059;-72
2023/07/03 06:04:25;;;;;;;35.20;9.35;;;;;;;17.72;100.00;100845.38;5031241;28;20115;-72
2023/07/03 06:06:53;;;;;;;28.90;7.65;;;;;;;17.63;100.00;100844.41;5032115;28;20041;-72
2023/07/03 06:09:19;;;;;;;32.28;8.93;;;;;;;17.91;100.00;100841.84;5032157;28;21037;-71
2023/07/03 06:11:45;;;;;;;30.63;8.07;;;;;;;18.06;100.00;100840.38;5040591;28;20028;-72
2023/07/03 06:14:17;;;;;;;31.80;8.98;;;;;;;18.47;97.73;100847.22;5040013;28;20033;-71
2023/07/03 06:16:47;;;;;;;37.85;8.88;;;;;;;18.56;95.27;100845.47;5033113;28;20037;-72
2023/07/03 06:19:14;;;;;;;35.50;8.73;;;;;;;18.71;94.57;100846.72;5036182;28;20046;-72
2023/07/03 06:21:41;;;;;;;38.35;10.05;;;;;;;19.13;89.80;100852.47;5038329;28;20041;-71
2023/07/03 06:24:12;;;;;;;39.88;9.60;;;;;;;19.54;88.03;100847.44;5032276;28;20030;-72
2023/07/03 06:26:39;;;;;;;36.38;9.05;;;;;;;19.38;88.71;100842.75;5032460;28;20045;-72
2023/07/03 06:29:08;;;;;;;34.35;9.60;;;;;;;19.36;86.64;100855.56;5044666;28;20095;-72
2023/07/03 06:31:34;;;;;;;37.22;8.23;;;;;;;19.46;85.84;100844.66;5033765;28;20471;-71
2023/07/03 06:34:01;;;;;;;28.98;8.88;;;;;;;19.41;86.84;100845.13;5032336;28;20857;-72
2023/07/03 06:36:27;;;;;;;30.83;8.50;;;;;;;19.23;86.51;100856.94;5031226;28;20029;-72
2023/07/03 06:38:57;;;;;;;28.63;8.13;;;;;;;19.15;87.40;100849.59;5032907;28;20969;-74
2023/07/03 06:41:26;;;;;;;24.40;8.05;;;;;;;18.98;87.73;100853.97;5035834;28;20037;-72
2023/07/03 06:43:52;;;;;;;30.25;8.10;;;;;;;18.56;88.26;100857.13;5032573;28;20055;-71
2023/07/03 06:46:18;;;;;;;36.25;8.63;;;;;;;18.29;90.78;100855.25;5033882;28;20037;-72
2023/07/03 06:48:43;;;;;;;25.15;7.82;;;;;;;18.63;91.06;100858.25;5033853;28;20436;-71
2023/07/03 06:51:11;;;;;;;28.27;8.02;;;;;;;18.93;91.54;100859.00;5039714;28;20948;-71
2023/07/03 06:53:37;;;;;;;30.30;7.68;;;;;;;18.96;89.73;100852.41;5037739;28;20045;-72
2023/07/03 06:56:04;;;;;;;31.88;8.07;;;;;;;19.05;86.94;100854.22;5034097;28;20772;-71
2023/07/03 06:58:31;;;;;;;30.92;8.05;;;;;;;18.85;85.99;100858.88;5041577;28;20040;-72
2023/07/03 07:00:57;;;;;;;29.20;7.65;;;;;;;19.05;86.43;100855.06;5034357;28;20112;-71
2023/07/03 07:03:23;;;;;;;28.33;8.52;;;;;;;19.36;85.71;100857.41;5039388;28;20077;-71
2023/07/03 07:05:49;;;;;;;29.33;7.20;;;;;;;19.40;85.39;100867.78;5066335;28;20041;-74
2023/07/03 07:08:16;;;;;;;30.15;7.78;;;;;;;19.87;82.49;100862.13;5042176;28;20037;-73
2023/07/03 07:10:43;;;;;;;37.40;8.68;;;;;;;20.34;81.59;100863.66;5044163;28;20032;-71
2023/07/03 07:13:10;;;;;;;36.90;9.13;;;;;;;20.18;82.40;100853.53;5037744;28;20037;-72
2023/07/03 07:15:37;;;;;;;33.28;8.57;;;;;;;20.28;80.43;100857.03;5036660;28;20041;-73
2023/07/03 07:18:03;;;;;;;38.72;9.07;;;;;;;20.61;79.74;100862.63;5036608;28;20107;-72
2023/07/03 07:20:28;;;;;;;28.35;8.95;;;;;;;20.47;80.88;100869.50;5040049;28;20133;-74
2023/07/03 07:22:54;;;;;;;24.35;7.97;;;;;;;20.64;78.19;100863.19;5043492;28;21012;-73
2023/07/03 07:25:19;;;;;;;31.08;8.50;;;;;;;20.66;76.80;100868.41;5036171;28;20505;-72
2023/07/03 07:27:45;;;;;;;31.33;9.25;;;;;;;20.61;76.09;100876.19;5036066;28;20729;-72
2023/07/03 07:30:11;;;;;;;29.45;8.02;;;;;;;20.35;77.08;100878.88;5036028;28;20057;-71
2023/07/03 07:32:37;;;;;;;30.15;8.48;;;;;;;20.18;79.99;100877.91;5036084;28;20645;-72
2023/07/03 07:35:04;;;;;;;25.42;7.85;;;;;;;19.69;80.17;100879.41;5030457;28;20275;-71
2023/07/03 07:37:30;;;;;;;34.35;9.43;;;;;;;19.53;80.10;100871.94;5054309;28;20048;-71
2023/07/03 07:39:55;;;;;;;27.52;7.63;;;;;;;19.37;81.28;100883.44;5032195;28;20680;-71
2023/07/03 07:42:21;;;;;;;31.33;7.70;;;;;;;19.47;80.67;100880.66;5033855;28;20478;-72
2023/07/03 07:44:50;;;;;;;26.45;7.35;;;;;;;19.43;82.78;100882.84;5038427;28;20454;-72
2023/07/03 07:47:15;;;;;;;26.02;6.95;;;;;;;19.04;85.79;100893.06;5035570;28;20045;-71
2023/07/03 07:49:42;;;;;;;30.65;8.15;;;;;;;19.28;84.62;100897.91;5047055;28;20029;-71
2023/07/03 07:52:08;;;;;;;26.83;7.95;;;;;;;19.20;85.28;100895.09;5034269;28;20637;-71
2023/07/03 07:54:33;;;;;;;29.30;7.78;;;;;;;19.34;85.15;100891.88;5043077;28;20037;-71
2023/07/03 07:56:59;;;;;;;29.02;7.60;;;;;;;19.54;82.54;100895.31;5039954;28;20487;-72
2023/07/03 07:59:25;;;;;;;33.13;8.13;;;;;;;20.01;81.96;100897.75;5046335;28;20087;-72
2023/07/03 08:01:51;;;;;;;36.72;8.90;;;;;;;20.53;79.92;100901.38;5048413;28;20039;-72
2023/07/03 08:04:16;;;;;;;23.02;7.65;;;;;;;20.26;78.34;100890.69;5044462;28;20048;-71
2023/07/03 08:06:42;;;;;;;24.88;7.35;;;;;;;20.43;79.67;100887.94;5043802;28;20080;-73
2023/07/03 08:09:08;;;;;;;28.38;7.57;;;;;;;20.41;79.22;100889.09;5033583;28;20035;-71
2023/07/03 08:11:33;;;;;;;29.77;8.38;;;;;;;20.49;76.81;100893.75;5033384;28;20033;-74
2023/07/03 08:13:59;;;;;;;31.70;8.20;;;;;;;20.60;77.16;100899.72;5030453;28;20047;-71
2023/07/03 08:16:25;;;;;;;31.40;8.80;;;;;;;20.57;74.69;100900.03;5035703;28;20032;-72
2023/07/03 08:18:50;;;;;;;35.20;8.32;;;;;;;20.92;74.77;100898.19;5030564;28;20140;-72
2023/07/03 08:21:16;;;;;;;32.53;8.95;;;;;;;21.31;74.70;100903.94;5033085;28;20040;-72
2023/07/03 08:23:42;;;;;;;37.15;8.50;;;;;;;20.78;76.01;100899.63;5030738;28;20025;-72
2023/07/03 08:26:17;;;;;;;27.27;8.80;;;;;;;21.40;73.35;100902.13;5031816;28;21229;-72
2023/07/03 08:28:42;;;;;;;22.73;7.10;;;;;;;21.64;73.24;100904.03;5063266;28;20468;-71
2023/07/03 08:31:08;;;;;;;28.55;7.70;;;;;;;21.19;74.20;100900.66;5031141;28;20037;-72
2023/07/03 08:33:33;;;;;;;22.40;7.95;;;;;;;21.15;72.46;100907.44;5029648;28;20182;-73
2023/07/03 08:35:59;;;;;;;28.70;7.95;;;;;;;21.37;72.18;100907.84;5030189;28;20593;-72
2023/07/03 08:38:24;;;;;;;34.70;8.48;;;;;;;21.28;72.48;100912.38;5036542;28;20072;-72
2023/07/03 08:41:00;;;;;;;28.80;7.55;;;;;;;21.49;72.59;100909.25;5043737;28;20033;-72
2023/07/03 08:43:39;;;;;;;24.55;7.82;;;;;;;21.44;70.11;100911.63;5039180;28;20157;-72
2023/07/03 08:46:10;;;;;;;23.00;7.00;;;;;;;22.10;69.55;100901.66;5047364;28;20044;-72
2023/07/03 08:48:37;;;;;;;25.33;6.97;;;;;;;22.08;68.47;100907.25;5057639;28;20072;-73
2023/07/03 08:51:05;;;;;;;25.55;6.85;;;;;;;22.53;65.99;100907.72;5036106;28;20041;-73
2023/07/03 08:53:38;;;;;;;23.27;6.53;;;;;;;;;;5034577;28;20053;-72
2023/07/03 08:56:11;;;;;;;22.98;6.43;;;;;;;21.95;66.00;100901.50;5030644;28;20038;-73
2023/07/03 08:58:36;;;;;;;25.65;6.75;;;;;;;22.12;65.26;100895.06;5030904;28;20152;-71
2023/07/03 09:01:16;;;;;;;24.92;7.47;;;;;;;21.81;64.76;100897.59;5037226;28;20042;-72
2023/07/03 09:03:52;;;;;;;26.92;6.82;;;;;;;22.35;66.08;100897.09;5030215;28;20122;-72
2023/07/03 09:06:32;;;;;;;18.73;5.82;;;;;;;21.83;65.80;100909.09;5040185;28;20037;-72
2023/07/03 09:09:23;;;;;;;19.38;6.18;;;;;;;21.95;65.08;100902.34;5033957;28;20048;-72
2023/07/03 09:12:17;;;;;;;22.73;5.32;;;;;;;21.90;62.90;100909.31;5030493;28;20482;-72
2023/07/03 09:15:14;;;;;;;17.42;5.15;;;;;;;22.31;61.62;100893.84;5028669;28;20100;-72
2023/07/03 09:17:42;;;;;;;25.30;6.43;;;;;;;22.44;61.12;100890.59;5035210;28;20606;-72
2023/07/03 09:20:11;;;;;;;19.33;6.10;;;;;;;22.13;60.15;100888.59;5032127;28;20038;-72
2023/07/03 09:22:46;;;;;;;19.17;5.93;;;;;;;22.22;60.92;100892.16;5036919;28;20043;-72
2023/07/03 09:25:21;;;;;;;21.88;6.25;;;;;;;22.35;60.38;100884.34;5028997;28;20033;-72
2023/07/03 09:27:52;;;;;;;22.50;5.70;;;;;;;22.94;61.19;100898.47;5029885;28;20207;-72
2023/07/03 09:30:18;;;;;;;18.42;5.93;;;;;;;22.97;62.58;100894.53;5028203;28;20042;-73
2023/07/03 09:32:43;;;;;;;17.98;5.75;;;;;;;23.06;62.99;100888.03;5030899;28;20041;-72
2023/07/03 09:35:17;;;;;;;25.08;5.68;;;;;;;23.11;60.62;100890.22;5032849;28;20025;-71
2023/07/03 09:37:46;;;;;;;28.75;6.28;;;;;;;23.07;60.10;100892.44;5042032;28;20124;-72
2023/07/03 09:40:22;;;;;;;23.60;6.13;;;;;;;22.85;58.99;100899.50;5042128;28;20077;-72
2023/07/03 09:42:48;;;;;;;21.05;5.43;;;;;;;22.81;57.84;100892.69;5044127;28;20033;-72
2023/07/03 09:45:20;;;;;;;13.73;4.80;;;;;;;22.66;56.07;100891.72;5032232;28;20029;-71
2023/07/03 09:47:57;;;;;;;25.73;5.85;;;;;;;21.87;59.04;100906.91;5033864;28;20044;-72
2023/07/03 09:50:29;;;;;;;15.15;5.40;;;;;;;21.83;59.29;100900.97;5038486;28;20044;-72
2023/07/03 09:52:57;;;;;;;19.75;5.78;;;;;;;21.49;58.17;100911.97;5032939;28;20049;-72
2023/07/03 09:55:25;;;;;;;20.77;5.63;;;;;;;21.35;59.40;100918.03;5032862;28;20033;-72
2023/07/03 09:57:50;;;;;;;18.88;6.13;;;;;;;21.10;60.68;100915.22;5032834;28;20033;-72
2023/07/03 10:00:20;;;;;;;21.05;5.88;;;;;;;20.68;61.83;100920.59;5036707;28;20029;-72
2023/07/03 10:02:50;;;;;;;17.80;5.68;;;;;;;21.53;61.64;100924.16;5040016;28;20282;-72
2023/07/03 10:05:19;;;;;;;18.08;5.45;;;;;;;22.45;60.82;100911.31;5035200;28;20166;-72
2023/07/03 10:07:46;;;;;;;15.88;5.43;;;;;;;22.65;59.28;100918.06;5064916;28;21081;-72
2023/07/03 10:10:22;;;;;;;22.33;5.60;;;;;;;22.67;58.61;100909.72;5040102;28;20037;-72
2023/07/03 10:13:09;;;;;;;16.20;5.18;;;;;;;23.25;57.76;100906.66;5037943;28;20068;-72
2023/07/03 10:15:39;;;;;;;21.60;5.63;;;;;;;22.88;56.49;100910.03;5031599;28;20067;-72
2023/07/03 10:18:30;;;;;;;16.58;5.30;;;;;;;23.40;56.97;100908.59;5044677;28;20034;-71
2023/07/03 10:21:01;;;;;;;20.77;5.47;;;;;;;23.38;54.61;100906.03;5033465;28;20172;-71
2023/07/03 10:23:30;;;;;;;22.30;5.32;;;;;;;22.36;55.23;100917.78;5033808;28;20037;-71
2023/07/03 10:26:04;;;;;;;15.35;4.75;;;;;;;22.20;55.99;100916.78;5049279;28;20050;-74
2023/07/03 10:28:55;;;;;;;13.63;4.63;;;;;;;21.44;57.46;100928.75;5031725;28;20037;-73
2023/07/03 10:31:37;;;;;;;17.92;4.15;;;;;;;21.06;57.51;100931.97;5030567;28;20193;-72
2023/07/03 10:34:47;;;;;;;15.00;4.30;;;;;;;21.21;57.92;100936.59;5036739;28;20132;-73
2023/07/03 10:37:17;;;;;;;15.50;4.38;;;;;;;21.21;57.80;100947.44;5038056;28;20033;-72
2023/07/03 10:40:09;;;;;;;15.38;3.70;;;;;;;21.03;57.23;100941.25;5035348;28;21320;-71
2023/07/03 10:42:44;;;;;;;13.85;3.72;;;;;;;21.12;55.97;100945.72;5035623;28;20168;-73
2023/07/03 10:45:14;;;;;;;18.75;3.85;;;;;;;21.07;56.18;100944.50;5032249;28;20478;-73
2023/07/03 10:47:48;;;;;;;13.68;4.18;;;;;;;21.48;55.80;100939.25;5031902;28;20034;-73
2023/07/03 10:50:16;;;;;;;26.40;4.15;;;;;;;22.31;55.18;100918.31;5036958;28;20048;-71
2023/07/03 10:52:44;;;;;;;15.18;3.78;;;;;;;22.63;53.71;100924.69;5062300;28;20095;-74
2023/07/03 10:55:23;;;;;;;13.55;3.58;;;;;;;22.83;50.47;100917.84;5033914;28;20041;-73
2023/07/03 10:58:07;;;;;;;18.70;4.15;;;;;;;22.71;48.92;100906.50;5036706;28;20041;-73
2023/07/03 11:00:50;;;;;;;15.50;3.50;;;;;;;22.26;49.20;100922.56;5030804;28;20046;-73
2023/07/03 11:03:40;;;;;;;10.75;3.55;;;;;;;22.60;49.43;100903.31;5030266;28;20100;-73
2023/07/03 11:06:31;;;;;;;12.10;3.38;;;;;;;22.53;49.09;100911.28;5034726;28;20030;-73
2023/07/03 11:09:16;;;;;;;27.85;3.88;;;;;;;22.50;50.02;100908.94;5073801;28;20049;-73
2023/07/03 11:12:15;;;;;;;12.68;3.35;;;;;;;22.24;48.46;100911.88;5033639;28;20038;-73
2023/07/03 11:15:18;;;;;;;12.30;3.80;;;;;;;22.33;49.22;100908.09;5030317;28;20115;-71
2023/07/03 11:17:56;;;;;;;8.15;3.40;;;;;;;22.15;48.84;100915.59;5032300;28;20033;-71
2023/07/03 11:20:50;;;;;;;11.10;3.38;;;;;;;23.13;50.38;100916.22;5036867;28;20140;-72
2023/07/03 11:23:31;;;;;;;11.95;3.47;;;;;;;23.70;47.48;100918.66;5032353;28;20036;-72
2023/07/03 11:26:14;;;;;;;14.00;3.95;;;;;;;23.48;46.20;100924.88;5037008;28;20048;-74